KLSF

UTC

Lawson Army Air Field (Fort Benning)

Chattahoochee County, Georgia, United States

METAR - Current

KLSF 031655Z AUTO 36007KT 10SM FEW120 FEW180 29/17 A2979 RMK AO2 SLP091 T02870169 $

Observed

Jun 03 16:55 UTC

Flight Rules

VFR

Wind

360° at 7 KTS

Visibility

10 SM

Clouds

  • Few at 12,000 ft AGL
  • Few at 18,000 ft AGL

Temperature

29°C=84°F

Dew Point

17°C=63°F

Humidity

48%

Altimeter

29.79 Hg

Pressure

1009.0 hPa

METAR - Previous

KLSF 031555Z AUTO 00000KT 10SM CLR 28/18 A2981 RMK AO2 SLP098 T02750179 $

Observed

Jun 03 15:55 UTC

Flight Rules

VFR

Visibility

10 SM

Clouds

  • Clear skies

Temperature

28°C=82°F

Dew Point

18°C=64°F

Humidity

55%

Altimeter

29.81 Hg

Pressure

1010.0 hPa